CheckWX is a tool to help pilots better visualize weather data.  It is not intended as a substitute for an official pre-flight weather briefing.

06:58:58 UTC

KMCB TAF
Mc Comb / Pike County / John E Lewis Field Airport
Mc Comb, Mississippi, USA
KMCB 210520Z 2106/2206 13003KT P6SM SKC FM211400 11007KT P6SM FEW045 FEW250

Sep-21@
06:00 UTC

Sep-21 @ 06:00 UTC

Sep-21@
14:00 UTC

Sep-21 @ 14:00 UTC

KMCB 210520Z 2106/2206 13003KT P6SM SKC
Wind
  • 130° at 3 KTS
Cloud Levels
  • Clear skies

Sep-21@
14:00 UTC

Sep-21 @ 14:00 UTC

Sep-22@
06:00 UTC

Sep-22 @ 06:00 UTC

FM211400 11007KT P6SM FEW045 FEW250

From

From Standard forecast or significant change

Wind
  • 110° at 7 KTS
Cloud Levels
  • Few at 4,500' AGL
  • Few at 25,000' AGL